createdAt,value
2022-08-24T00:04:09.087Z,22.50
2022-08-24T00:09:16.259Z,22.50
2022-08-24T00:14:23.496Z,22.50
2022-08-24T00:19:30.675Z,22.30
2022-08-24T00:24:37.926Z,22.20
2022-08-24T00:29:45.252Z,22.30
2022-08-24T00:34:58.558Z,22.20
2022-08-24T00:39:59.722Z,22.10
2022-08-24T00:45:06.878Z,22.30
2022-08-24T00:50:14.051Z,22.50
2022-08-24T00:55:21.232Z,22.40
2022-08-24T01:00:28.469Z,22.60
2022-08-24T01:05:35.629Z,22.80
2022-08-24T01:10:42.864Z,22.90
2022-08-24T01:15:50.124Z,22.90
2022-08-24T01:20:57.273Z,22.90
2022-08-24T01:26:04.422Z,22.80
2022-08-24T01:31:11.637Z,22.70
2022-08-24T01:36:18.825Z,22.60
2022-08-24T01:41:29.099Z,22.50
2022-08-24T01:46:33.257Z,22.40
2022-08-24T01:51:41.651Z,22.20
2022-08-24T01:56:48.868Z,22.10
2022-08-24T02:01:56.135Z,22.00
2022-08-24T02:07:03.227Z,22.00
2022-08-24T02:12:10.418Z,21.80
2022-08-24T02:17:17.592Z,21.50
2022-08-24T02:22:24.755Z,21.60
2022-08-24T02:27:32.027Z,21.80
2022-08-24T02:32:39.281Z,21.70
2022-08-24T02:37:46.506Z,21.70
2022-08-24T02:42:55.675Z,21.70
2022-08-24T02:48:02.930Z,21.70
2022-08-24T02:53:10.114Z,21.60
2022-08-24T02:58:17.379Z,21.60
2022-08-24T03:03:24.545Z,21.40
2022-08-24T03:08:31.748Z,21.30
2022-08-24T03:13:38.951Z,21.40
2022-08-24T03:18:46.130Z,21.30
2022-08-24T03:23:53.307Z,21.30
2022-08-24T03:29:00.486Z,21.20
2022-08-24T03:34:07.691Z,21.10
2022-08-24T03:39:14.881Z,21.10
2022-08-24T03:44:23.337Z,21.00
2022-08-24T03:49:29.268Z,21.00
2022-08-24T03:54:36.513Z,21.00
2022-08-24T03:59:46.823Z,21.10
2022-08-24T04:04:51.198Z,21.10
2022-08-24T04:09:58.375Z,21.00
2022-08-24T04:15:05.607Z,20.90
2022-08-24T04:20:12.844Z,20.90
2022-08-24T04:25:24.684Z,20.70
2022-08-24T04:30:27.203Z,20.70
2022-08-24T04:35:34.417Z,20.70
2022-08-24T04:40:41.665Z,20.60
2022-08-24T04:45:48.922Z,20.30
2022-08-24T04:50:56.169Z,19.90
2022-08-24T04:56:03.364Z,19.80
2022-08-24T05:01:10.683Z,19.70
2022-08-24T05:06:17.818Z,19.50
2022-08-24T05:11:25.529Z,19.50
2022-08-24T05:16:33.054Z,19.40
2022-08-24T05:21:40.215Z,19.40
2022-08-24T05:26:47.434Z,19.30
2022-08-24T05:31:54.642Z,19.30
2022-08-24T05:37:04.601Z,19.20
2022-08-24T05:42:11.828Z,19.10
2022-08-24T05:47:19.012Z,19.10
2022-08-24T05:52:26.190Z,19.10
2022-08-24T05:57:33.487Z,19.00
2022-08-24T06:02:43.376Z,19.00
2022-08-24T06:07:50.510Z,19.30
2022-08-24T06:12:57.848Z,19.20
2022-08-24T06:18:05.068Z,19.20
2022-08-24T06:23:12.202Z,19.20
2022-08-24T06:28:19.384Z,19.20
2022-08-24T06:33:26.613Z,19.40
2022-08-24T06:38:33.772Z,19.60
2022-08-24T06:43:40.972Z,19.70
2022-08-24T06:48:48.219Z,19.80
2022-08-24T06:53:55.426Z,19.80
2022-08-24T06:59:02.621Z,19.90
2022-08-24T07:04:09.813Z,20.00
2022-08-24T07:09:17.047Z,20.10
2022-08-24T07:14:24.225Z,20.10
2022-08-24T07:19:32.280Z,20.20
2022-08-24T07:24:39.463Z,20.30
2022-08-24T07:29:56.272Z,20.50
2022-08-24T07:34:54.162Z,20.60
2022-08-24T07:40:01.436Z,20.70
2022-08-24T07:45:08.675Z,20.70
2022-08-24T07:50:15.922Z,20.90
2022-08-24T07:55:23.137Z,21.10
2022-08-24T08:00:30.378Z,21.10
2022-08-24T08:05:37.626Z,21.20
2022-08-24T08:10:44.863Z,21.30
2022-08-24T08:15:53.206Z,21.40
2022-08-24T08:20:59.349Z,21.50
2022-08-24T08:26:06.583Z,21.50
2022-08-24T08:31:13.885Z,21.60
2022-08-24T08:36:21.023Z,21.60
2022-08-24T08:41:28.264Z,21.70
2022-08-24T08:46:40.119Z,21.80
2022-08-24T08:51:42.760Z,21.90
2022-08-24T08:56:49.963Z,22.10
2022-08-24T09:01:57.209Z,22.10
2022-08-24T09:07:04.373Z,22.20
2022-08-24T09:12:11.557Z,22.30
2022-08-24T09:17:18.852Z,22.40
2022-08-24T09:22:26.205Z,22.50
2022-08-24T09:27:33.495Z,22.60
2022-08-24T09:32:41.168Z,22.60
2022-08-24T09:37:47.930Z,22.70
2022-08-24T09:42:55.133Z,22.80
2022-08-24T09:48:02.370Z,22.90
2022-08-24T09:53:09.610Z,23.10
2022-08-24T09:58:16.820Z,23.10
2022-08-24T10:03:27.333Z,23.10
2022-08-24T10:08:31.261Z,23.10
2022-08-24T10:13:40.547Z,23.20
2022-08-24T10:18:47.782Z,23.20
2022-08-24T10:23:54.962Z,23.30
2022-08-24T10:29:02.111Z,23.30
2022-08-24T10:34:09.359Z,23.40
2022-08-24T10:39:16.574Z,23.50
2022-08-24T10:44:23.777Z,23.50
2022-08-24T10:49:30.971Z,23.60
2022-08-24T10:54:38.159Z,23.60
2022-08-24T10:59:45.374Z,23.70
2022-08-24T11:04:53.202Z,23.80
2022-08-24T11:10:00.432Z,23.80
2022-08-24T11:15:07.684Z,23.90
2022-08-24T11:20:14.929Z,23.90
2022-08-24T11:25:22.083Z,24.00
2022-08-24T11:30:29.274Z,24.00
2022-08-24T11:35:36.534Z,24.10
2022-08-24T11:40:43.720Z,24.10
2022-08-24T11:45:50.929Z,24.10
2022-08-24T11:50:58.208Z,24.20
2022-08-24T11:56:05.619Z,24.30
2022-08-24T12:01:12.912Z,24.40
2022-08-24T12:06:20.322Z,24.40
2022-08-24T12:11:27.565Z,24.50
2022-08-24T12:16:34.839Z,24.60
2022-08-24T12:21:42.012Z,24.70
2022-08-24T12:26:49.460Z,24.70
2022-08-24T12:31:56.742Z,24.80
2022-08-24T12:37:04.811Z,24.90
2022-08-24T12:42:15.743Z,24.90
2022-08-24T12:47:18.616Z,25.00
2022-08-24T12:52:25.838Z,25.10
2022-08-24T12:57:33.092Z,25.00
2022-08-24T13:02:44.362Z,25.10
2022-08-24T13:07:47.557Z,25.10
2022-08-24T13:12:54.833Z,25.10
2022-08-24T13:18:03.511Z,25.20
2022-08-24T13:23:09.277Z,25.20
2022-08-24T13:28:16.500Z,25.20
2022-08-24T13:33:23.656Z,25.20
2022-08-24T13:38:30.888Z,25.30
2022-08-24T13:43:38.740Z,25.30
2022-08-24T13:48:45.866Z,25.30
2022-08-24T13:53:53.141Z,25.40
2022-08-24T13:59:00.315Z,25.40
2022-08-24T14:04:07.563Z,25.50
2022-08-24T14:09:14.767Z,25.50
2022-08-24T14:14:21.959Z,25.50
2022-08-24T14:19:29.160Z,25.60
2022-08-24T14:24:36.377Z,25.60
2022-08-24T14:29:43.628Z,25.70
2022-08-24T14:34:50.806Z,25.80
2022-08-24T14:39:58.245Z,25.80
2022-08-24T14:45:05.438Z,25.80
2022-08-24T14:50:15.969Z,25.90
2022-08-24T14:55:23.214Z,25.90
2022-08-24T15:00:30.486Z,26.00
2022-08-24T15:05:37.821Z,26.00
2022-08-24T15:10:44.926Z,26.00
2022-08-24T15:15:53.833Z,26.10
2022-08-24T15:21:00.989Z,26.10
2022-08-24T15:26:08.270Z,26.10
2022-08-24T15:31:15.571Z,26.10
2022-08-24T15:36:22.700Z,26.20
2022-08-24T15:41:29.955Z,26.20
2022-08-24T15:46:37.241Z,26.20
2022-08-24T15:51:44.374Z,26.30
2022-08-24T15:56:51.588Z,26.30
2022-08-24T16:01:58.829Z,26.30
2022-08-24T16:07:06.112Z,26.30
2022-08-24T16:12:14.040Z,26.30
2022-08-24T16:17:20.750Z,26.30
2022-08-24T16:22:27.934Z,26.40
2022-08-24T16:27:35.122Z,26.40
2022-08-24T16:32:51.662Z,26.40
2022-08-24T16:37:49.667Z,26.50
2022-08-24T16:42:56.867Z,26.40
2022-08-24T16:48:04.323Z,26.40
2022-08-24T16:53:11.211Z,26.30
2022-08-24T16:58:18.449Z,26.40
2022-08-24T17:03:25.701Z,26.30
2022-08-24T17:08:32.912Z,26.30
2022-08-24T17:13:49.824Z,26.40
2022-08-24T17:18:47.343Z,26.30
2022-08-24T17:23:54.544Z,26.30
2022-08-24T17:29:01.809Z,26.30
2022-08-24T17:34:09.006Z,26.30
2022-08-24T17:39:16.196Z,26.30
2022-08-24T17:44:23.395Z,26.30
2022-08-24T17:49:30.559Z,26.20
2022-08-24T17:54:37.780Z,26.20
2022-08-24T17:59:44.980Z,26.20
2022-08-24T18:04:52.195Z,26.20
2022-08-24T18:09:59.379Z,26.10
2022-08-24T18:15:06.541Z,26.10
2022-08-24T18:20:13.730Z,26.10
2022-08-24T18:25:20.892Z,26.10
2022-08-24T18:30:30.491Z,26.00
2022-08-24T18:35:35.316Z,26.00
2022-08-24T18:40:52.376Z,25.80
2022-08-24T18:45:49.816Z,25.80
2022-08-24T18:50:59.587Z,25.70
2022-08-24T18:56:11.777Z,25.60
2022-08-24T19:01:14.189Z,25.60
2022-08-24T19:06:21.435Z,25.50
2022-08-24T19:11:28.710Z,25.50
2022-08-24T19:16:36.241Z,25.30
2022-08-24T19:21:43.537Z,25.10
2022-08-24T19:26:51.008Z,25.10
2022-08-24T19:31:58.775Z,25.00
2022-08-24T19:37:06.208Z,24.80
2022-08-24T19:42:13.632Z,24.80
2022-08-24T19:47:21.265Z,24.70
2022-08-24T19:52:28.710Z,24.60
2022-08-24T19:57:35.913Z,24.50
2022-08-24T20:02:43.218Z,24.40
2022-08-24T20:07:50.457Z,24.30
2022-08-24T20:12:57.687Z,24.20
2022-08-24T20:18:04.942Z,24.10
2022-08-24T20:23:12.133Z,24.00
2022-08-24T20:28:29.313Z,23.90
2022-08-24T20:33:26.513Z,23.80
2022-08-24T20:38:33.786Z,23.80
2022-08-24T20:43:41.040Z,23.70
2022-08-24T20:48:55.326Z,23.60
2022-08-24T20:53:55.454Z,23.50
2022-08-24T20:59:02.636Z,23.40
2022-08-24T21:04:09.965Z,23.30
2022-08-24T21:09:17.075Z,23.30
2022-08-24T21:14:24.286Z,23.20
2022-08-24T21:19:32.281Z,23.30
2022-08-24T21:24:39.454Z,23.10
2022-08-24T21:29:46.655Z,23.00
2022-08-24T21:34:53.845Z,22.90
2022-08-24T21:40:01.157Z,22.80
2022-08-24T21:45:08.196Z,22.70
2022-08-24T21:50:15.407Z,22.80
2022-08-24T21:55:22.559Z,22.80
2022-08-24T22:00:29.763Z,22.90
2022-08-24T22:05:36.937Z,22.60
2022-08-24T22:10:44.201Z,22.60
2022-08-24T22:15:51.501Z,22.50
2022-08-24T22:20:58.604Z,22.50
2022-08-24T22:26:05.749Z,22.50
2022-08-24T22:31:13.032Z,22.40
2022-08-24T22:36:20.147Z,22.30
2022-08-24T22:41:27.341Z,22.30
2022-08-24T22:46:34.592Z,22.20
2022-08-24T22:51:41.701Z,22.20
2022-08-24T22:56:48.909Z,22.30
2022-08-24T23:01:56.263Z,22.40
2022-08-24T23:07:03.356Z,22.40
2022-08-24T23:12:10.544Z,22.40
2022-08-24T23:17:17.705Z,22.30
2022-08-24T23:22:25.689Z,22.40
2022-08-24T23:27:33.049Z,22.50
2022-08-24T23:32:39.384Z,22.50
2022-08-24T23:37:46.602Z,22.50
2022-08-24T23:42:53.812Z,22.50
2022-08-24T23:48:01.052Z,22.70
2022-08-24T23:53:08.336Z,22.80
2022-08-24T23:58:15.552Z,22.90
